sensor_id;sensor_type;location;lat;lon;timestamp;pressure;altitude;pressure_sealevel;temperature;humidity
71857;BME280;63344;46.980;28.882;2023-03-21T00:00:45;100818.97;;;1.99;89.36
71857;BME280;63344;46.980;28.882;2023-03-21T00:03:21;100813.72;;;1.99;89.38
71857;BME280;63344;46.980;28.882;2023-03-21T00:05:49;100824.22;;;2.09;90.13
71857;BME280;63344;46.980;28.882;2023-03-21T00:08:20;100821.59;;;2.16;90.68
71857;BME280;63344;46.980;28.882;2023-03-21T00:11:01;100821.59;;;2.18;90.83
71857;BME280;63344;46.980;28.882;2023-03-21T00:13:29;100823.34;;;2.16;90.79
71857;BME280;63344;46.980;28.882;2023-03-21T00:16:08;100824.22;;;2.16;91.20
71857;BME280;63344;46.980;28.882;2023-03-21T00:18:52;100818.06;;;2.24;91.55
71857;BME280;63344;46.980;28.882;2023-03-21T00:21:21;100823.34;;;2.30;92.23
71857;BME280;63344;46.980;28.882;2023-03-21T00:24:14;100822.44;;;2.34;92.67
71857;BME280;63344;46.980;28.882;2023-03-21T00:26:41;100818.06;;;2.25;92.04
71857;BME280;63344;46.980;28.882;2023-03-21T00:29:09;100817.22;;;2.28;92.36
71857;BME280;63344;46.980;28.882;2023-03-21T00:31:36;100809.34;;;2.32;92.76
71857;BME280;63344;46.980;28.882;2023-03-21T00:34:03;100813.72;;;2.21;92.16
71857;BME280;63344;46.980;28.882;2023-03-21T00:36:31;100818.97;;;2.15;91.92
71857;BME280;63344;46.980;28.882;2023-03-21T00:38:58;100810.25;;;2.22;92.64
71857;BME280;63344;46.980;28.882;2023-03-21T00:41:27;100804.97;;;2.31;93.20
71857;BME280;63344;46.980;28.882;2023-03-21T00:44:09;100811.94;;;2.35;93.11
71857;BME280;63344;46.980;28.882;2023-03-21T00:46:37;100809.34;;;2.31;93.31
71857;BME280;63344;46.980;28.882;2023-03-21T00:49:17;100815.47;;;2.28;92.79
71857;BME280;63344;46.980;28.882;2023-03-21T00:51:47;100811.97;;;2.23;92.93
71857;BME280;63344;46.980;28.882;2023-03-21T00:54:18;100813.72;;;2.30;93.31
71857;BME280;63344;46.980;28.882;2023-03-21T00:56:45;100814.56;;;2.37;93.03
71857;BME280;63344;46.980;28.882;2023-03-21T00:59:12;100808.47;;;2.36;93.26
71857;BME280;63344;46.980;28.882;2023-03-21T01:01:40;100811.06;;;2.36;93.16
71857;BME280;63344;46.980;28.882;2023-03-21T01:04:07;100793.63;;;2.25;92.36
71857;BME280;63344;46.980;28.882;2023-03-21T01:06:42;100792.75;;;2.21;91.50
71857;BME280;63344;46.980;28.882;2023-03-21T01:09:17;100789.31;;;2.10;91.27
71857;BME280;63344;46.980;28.882;2023-03-21T01:11:45;100796.25;;;2.02;91.02
71857;BME280;63344;46.980;28.882;2023-03-21T01:14:14;100789.31;;;1.94;91.06
71857;BME280;63344;46.980;28.882;2023-03-21T01:16:50;100791.06;;;1.88;90.79
71857;BME280;63344;46.980;28.882;2023-03-21T01:19:20;100785.81;;;1.82;90.93
71857;BME280;63344;46.980;28.882;2023-03-21T01:21:57;100783.19;;;1.69;91.00
71857;BME280;63344;46.980;28.882;2023-03-21T01:24:24;100778.84;;;1.70;91.04
71857;BME280;63344;46.980;28.882;2023-03-21T01:26:51;100781.47;;;1.74;91.37
71857;BME280;63344;46.980;28.882;2023-03-21T01:29:18;100775.34;;;1.75;91.39
71857;BME280;63344;46.980;28.882;2023-03-21T01:31:46;100768.34;;;1.79;91.72
71857;BME280;63344;46.980;28.882;2023-03-21T01:34:13;100770.97;;;1.84;91.73
71857;BME280;63344;46.980;28.882;2023-03-21T01:36:41;100777.09;;;1.96;91.95
71857;BME280;63344;46.980;28.882;2023-03-21T01:39:08;100768.34;;;2.02;92.36
71857;BME280;63344;46.980;28.882;2023-03-21T01:41:38;100770.09;;;2.08;92.13
71857;BME280;63344;46.980;28.882;2023-03-21T01:44:15;100773.56;;;2.16;93.33
71857;BME280;63344;46.980;28.882;2023-03-21T01:46:50;100777.03;;;2.27;93.25
71857;BME280;63344;46.980;28.882;2023-03-21T01:49:40;100771.78;;;2.30;92.93
71857;BME280;63344;46.980;28.882;2023-03-21T01:52:21;100763.94;;;2.30;92.83
71857;BME280;63344;46.980;28.882;2023-03-21T01:55:05;100759.56;;;2.32;92.69
71857;BME280;63344;46.980;28.882;2023-03-21T01:57:45;100753.44;;;2.32;92.20
71857;BME280;63344;46.980;28.882;2023-03-21T02:00:30;100754.31;;;2.32;92.09
71857;BME280;63344;46.980;28.882;2023-03-21T02:02:59;100749.94;;;2.34;91.86
71857;BME280;63344;46.980;28.882;2023-03-21T02:08:21;100742.88;;;2.47;91.65
71857;BME280;63344;46.980;28.882;2023-03-21T02:11:04;100743.75;;;2.52;91.34
71857;BME280;63344;46.980;28.882;2023-03-21T02:13:32;100738.50;;;2.51;91.41
71857;BME280;63344;46.980;28.882;2023-03-21T02:16:02;100751.63;;;2.51;91.56
71857;BME280;63344;46.980;28.882;2023-03-21T02:18:39;100745.47;;;2.53;91.43
71857;BME280;63344;46.980;28.882;2023-03-21T02:33:18;100752.38;;;2.84;91.56
71857;BME280;63344;46.980;28.882;2023-03-21T02:38:54;100745.34;;;2.87;91.29
71857;BME280;63344;46.980;28.882;2023-03-21T02:42:02;100736.59;;;2.90;90.86
71857;BME280;63344;46.980;28.882;2023-03-21T02:47:12;100753.19;;;2.87;90.18
71857;BME280;63344;46.980;28.882;2023-03-21T02:49:51;100753.19;;;2.89;90.18
71857;BME280;63344;46.980;28.882;2023-03-21T02:52:27;100746.22;;;2.88;90.18
71857;BME280;63344;46.980;28.882;2023-03-21T02:55:09;100754.97;;;2.85;90.30
71857;BME280;63344;46.980;28.882;2023-03-21T02:57:42;100753.22;;;2.84;90.29
71857;BME280;63344;46.980;28.882;2023-03-21T03:00:16;100753.22;;;2.83;90.36
71857;BME280;63344;46.980;28.882;2023-03-21T03:02:45;100744.53;;;2.74;89.79
71857;BME280;63344;46.980;28.882;2023-03-21T03:05:20;100743.63;;;2.75;89.91
71857;BME280;63344;46.980;28.882;2023-03-21T03:10:26;100743.66;;;2.72;90.05
71857;BME280;63344;46.980;28.882;2023-03-21T03:13:30;100748.91;;;2.72;90.00
71857;BME280;63344;46.980;28.882;2023-03-21T03:18:58;100746.28;;;2.72;89.83
71857;BME280;63344;46.980;28.882;2023-03-21T03:23:59;100748.00;;;2.79;89.74
71857;BME280;63344;46.980;28.882;2023-03-21T03:29:14;100745.38;;;2.79;89.99
71857;BME280;63344;46.980;28.882;2023-03-21T03:31:48;100737.50;;;2.81;89.82
71857;BME280;63344;46.980;28.882;2023-03-21T03:34:21;100738.38;;;2.82;89.98
71857;BME280;63344;46.980;28.882;2023-03-21T03:36:55;100731.38;;;2.81;90.29
71857;BME280;63344;46.980;28.882;2023-03-21T03:39:28;100735.78;;;2.82;90.72
71857;BME280;63344;46.980;28.882;2023-03-21T03:42:05;100733.97;;;2.85;90.77
71857;BME280;63344;46.980;28.882;2023-03-21T03:44:53;100739.19;;;2.94;90.53
71857;BME280;63344;46.980;28.882;2023-03-21T03:47:29;100741.78;;;2.99;90.67
71857;BME280;63344;46.980;28.882;2023-03-21T03:50:40;100737.38;;;3.03;90.94
71857;BME280;63344;46.980;28.882;2023-03-21T03:53:25;100750.47;;;3.07;90.85
71857;BME280;63344;46.980;28.882;2023-03-21T03:55:55;100739.97;;;3.07;91.04
71857;BME280;63344;46.980;28.882;2023-03-21T03:58:24;100751.31;;;3.09;90.73
71857;BME280;63344;46.980;28.882;2023-03-21T04:01:09;100746.94;;;3.11;90.73
71857;BME280;63344;46.980;28.882;2023-03-21T04:03:39;100739.94;;;3.13;90.49
71857;BME280;63344;46.980;28.882;2023-03-21T04:06:17;100745.16;;;3.16;90.41
71857;BME280;63344;46.980;28.882;2023-03-21T04:08:45;100739.94;;;3.13;90.22
71857;BME280;63344;46.980;28.882;2023-03-21T04:11:13;100739.06;;;3.16;90.35
71857;BME280;63344;46.980;28.882;2023-03-21T04:13:41;100746.06;;;3.14;90.45
71857;BME280;63344;46.980;28.882;2023-03-21T04:16:09;100741.69;;;3.16;90.33
71857;BME280;63344;46.980;28.882;2023-03-21T04:18:37;100736.44;;;3.14;90.33
71857;BME280;63344;46.980;28.882;2023-03-21T04:21:09;100748.66;;;3.18;90.38
71857;BME280;63344;46.980;28.882;2023-03-21T04:23:39;100746.91;;;3.19;90.71
71857;BME280;63344;46.980;28.882;2023-03-21T04:26:07;100732.91;;;3.22;90.65
71857;BME280;63344;46.980;28.882;2023-03-21T04:28:35;100748.56;;;3.31;90.58
71857;BME280;63344;46.980;28.882;2023-03-21T04:31:06;100739.84;;;3.27;90.82
71857;BME280;63344;46.980;28.882;2023-03-21T04:33:50;100741.59;;;3.30;90.49
71857;BME280;63344;46.980;28.882;2023-03-21T04:36:20;100737.16;;;3.36;90.49
71857;BME280;63344;46.980;28.882;2023-03-21T04:38:59;100734.53;;;3.38;90.43
71857;BME280;63344;46.980;28.882;2023-03-21T04:41:31;100732.81;;;3.31;90.37
71857;BME280;63344;46.980;28.882;2023-03-21T04:43:58;100731.91;;;3.33;90.03
71857;BME280;63344;46.980;28.882;2023-03-21T04:46:25;100739.78;;;3.35;89.73
71857;BME280;63344;46.980;28.882;2023-03-21T04:48:55;100741.56;;;3.34;89.70
71857;BME280;63344;46.980;28.882;2023-03-21T04:51:23;100744.16;;;3.34;89.51
71857;BME280;63344;46.980;28.882;2023-03-21T04:53:50;100743.28;;;3.37;89.77
71857;BME280;63344;46.980;28.882;2023-03-21T04:56:18;100745.88;;;3.38;89.94
71857;BME280;63344;46.980;28.882;2023-03-21T04:58:45;100751.97;;;3.45;89.99
71857;BME280;63344;46.980;28.882;2023-03-21T05:01:12;100744.94;;;3.47;90.23
71857;BME280;63344;46.980;28.882;2023-03-21T05:03:40;100750.19;;;3.50;90.25
71857;BME280;63344;46.980;28.882;2023-03-21T05:06:08;100751.84;;;3.59;90.28
71857;BME280;63344;46.980;28.882;2023-03-21T05:08:37;100746.59;;;3.64;90.58
71857;BME280;63344;46.980;28.882;2023-03-21T05:11:05;100752.66;;;3.67;90.44
71857;BME280;63344;46.980;28.882;2023-03-21T05:13:32;100757.00;;;3.73;89.98
71857;BME280;63344;46.980;28.882;2023-03-21T05:16:00;100747.34;;;3.75;89.94
71857;BME280;63344;46.980;28.882;2023-03-21T05:18:27;100747.31;;;3.79;89.71
71857;BME280;63344;46.980;28.882;2023-03-21T05:20:57;100749.84;;;3.87;89.74
71857;BME280;63344;46.980;28.882;2023-03-21T05:23:25;100738.47;;;3.87;89.08
71857;BME280;63344;46.980;28.882;2023-03-21T05:26:00;100753.31;;;3.92;88.92
71857;BME280;63344;46.980;28.882;2023-03-21T05:28:27;100755.88;;;3.98;89.16
71857;BME280;63344;46.980;28.882;2023-03-21T05:30:57;100747.06;;;4.06;89.04
71857;BME280;63344;46.980;28.882;2023-03-21T05:33:24;100754.81;;;4.18;89.07
71857;BME280;63344;46.980;28.882;2023-03-21T05:35:52;100757.38;;;4.26;89.23
71857;BME280;63344;46.980;28.882;2023-03-21T05:38:20;100766.84;;;4.41;88.90
71857;BME280;63344;46.980;28.882;2023-03-21T05:40:49;100769.41;;;4.47;88.70
71857;BME280;63344;46.980;28.882;2023-03-21T05:43:18;100759.78;;;4.44;88.34
71857;BME280;63344;46.980;28.882;2023-03-21T05:45:45;100770.22;;;4.52;87.65
71857;BME280;63344;46.980;28.882;2023-03-21T05:48:16;100766.69;;;4.56;87.71
71857;BME280;63344;46.980;28.882;2023-03-21T05:50:44;100770.03;;;4.67;87.89
71857;BME280;63344;46.980;28.882;2023-03-21T05:53:11;100754.13;;;4.76;87.51
71857;BME280;63344;46.980;28.882;2023-03-21T05:55:39;100770.53;;;4.97;87.51
71857;BME280;63344;46.980;28.882;2023-03-21T05:58:06;100776.53;;;5.08;87.03
71857;BME280;63344;46.980;28.882;2023-03-21T06:00:34;100766.81;;;5.13;86.34
71857;BME280;63344;46.980;28.882;2023-03-21T06:03:01;100764.03;;;5.23;85.83
71857;BME280;63344;46.980;28.882;2023-03-21T06:05:29;100767.38;;;5.35;85.30
71857;BME280;63344;46.980;28.882;2023-03-21T06:07:56;100763.63;;;5.49;85.16
71857;BME280;63344;46.980;28.882;2023-03-21T06:10:24;100758.97;;;5.66;85.45
71857;BME280;63344;46.980;28.882;2023-03-21T06:13:07;100757.06;;;5.76;84.50
71857;BME280;63344;46.980;28.882;2023-03-21T06:15:35;100752.53;;;5.84;83.72
71857;BME280;63344;46.980;28.882;2023-03-21T06:18:02;100758.56;;;5.91;83.07
71857;BME280;63344;46.980;28.882;2023-03-21T06:20:30;100763.69;;;6.02;82.29
71857;BME280;63344;46.980;28.882;2023-03-21T06:22:57;100768.84;;;6.09;81.71
71857;BME280;63344;46.980;28.882;2023-03-21T06:25:24;100767.91;;;6.12;80.68
71857;BME280;63344;46.980;28.882;2023-03-21T06:27:51;100766.97;;;6.13;80.69
71857;BME280;63344;46.980;28.882;2023-03-21T06:30:19;100766.91;;;6.19;80.69
71857;BME280;63344;46.980;28.882;2023-03-21T06:32:46;100764.91;;;6.30;80.53
71857;BME280;63344;46.980;28.882;2023-03-21T06:35:14;100757.78;;;6.35;80.50
71857;BME280;63344;46.980;28.882;2023-03-21T06:37:41;100766.31;;;6.48;80.10
71857;BME280;63344;46.980;28.882;2023-03-21T06:40:11;100768.69;;;6.62;80.15
71857;BME280;63344;46.980;28.882;2023-03-21T06:42:40;100758.00;;;6.68;79.46
71857;BME280;63344;46.980;28.882;2023-03-21T06:45:07;100774.47;;;6.81;79.35
71857;BME280;63344;46.980;28.882;2023-03-21T06:47:35;100767.22;;;6.91;78.95
71857;BME280;63344;46.980;28.882;2023-03-21T06:50:03;100767.84;;;7.04;78.62
71857;BME280;63344;46.980;28.882;2023-03-21T06:52:49;100761.50;;;7.11;78.47
71857;BME280;63344;46.980;28.882;2023-03-21T06:55:19;100760.47;;;7.18;78.50
71857;BME280;63344;46.980;28.882;2023-03-21T06:57:52;100767.19;;;7.33;78.62
71857;BME280;63344;46.980;28.882;2023-03-21T07:00:22;100769.47;;;7.47;78.17
71857;BME280;63344;46.980;28.882;2023-03-21T07:02:51;100763.97;;;7.57;78.26
71857;BME280;63344;46.980;28.882;2023-03-21T07:05:20;100772.34;;;7.75;78.07
71857;BME280;63344;46.980;28.882;2023-03-21T07:07:48;100769.47;;;7.84;77.12
71857;BME280;63344;46.980;28.882;2023-03-21T07:10:16;100773.53;;;7.97;76.96
71857;BME280;63344;46.980;28.882;2023-03-21T07:12:44;100770.03;;;7.97;75.88
71857;BME280;63344;46.980;28.882;2023-03-21T07:15:11;100776.88;;;8.04;75.69
71857;BME280;63344;46.980;28.882;2023-03-21T07:17:43;100769.88;;;8.03;75.88
71857;BME280;63344;46.980;28.882;2023-03-21T07:20:11;100772.31;;;8.11;75.32
71857;BME280;63344;46.980;28.882;2023-03-21T07:22:38;100771.00;;;8.27;75.14
71857;BME280;63344;46.980;28.882;2023-03-21T07:25:08;100764.41;;;8.44;74.76
71857;BME280;63344;46.980;28.882;2023-03-21T07:27:37;100762.88;;;8.66;74.98
71857;BME280;63344;46.980;28.882;2023-03-21T07:30:22;100755.13;;;8.90;74.61
71857;BME280;63344;46.980;28.882;2023-03-21T07:32:53;100759.84;;;9.10;74.10
71857;BME280;63344;46.980;28.882;2023-03-21T07:35:21;100765.53;;;9.26;73.74
71857;BME280;63344;46.980;28.882;2023-03-21T07:37:48;100761.44;;;9.44;73.10
71857;BME280;63344;46.980;28.882;2023-03-21T07:40:16;100762.75;;;9.59;72.69
71857;BME280;63344;46.980;28.882;2023-03-21T07:42:44;100759.94;;;9.63;71.74
71857;BME280;63344;46.980;28.882;2023-03-21T07:45:12;100774.53;;;9.76;71.26
71857;BME280;63344;46.980;28.882;2023-03-21T07:47:46;100769.72;;;9.88;71.04
71857;BME280;63344;46.980;28.882;2023-03-21T07:50:14;100775.59;;;9.97;70.38
71857;BME280;63344;46.980;28.882;2023-03-21T07:52:43;100772.25;;;10.17;70.83
71857;BME280;63344;46.980;28.882;2023-03-21T07:55:10;100764.38;;;10.41;70.32
71857;BME280;63344;46.980;28.882;2023-03-21T07:57:38;100753.94;;;10.60;69.78
71857;BME280;63344;46.980;28.882;2023-03-21T08:00:20;100751.66;;;10.74;69.78
71857;BME280;63344;46.980;28.882;2023-03-21T08:02:53;100758.06;;;10.92;68.45
71857;BME280;63344;46.980;28.882;2023-03-21T08:05:32;100760.31;;;11.03;68.57
71857;BME280;63344;46.980;28.882;2023-03-21T08:07:59;100758.59;;;11.24;67.92
71857;BME280;63344;46.980;28.882;2023-03-21T08:10:27;100757.63;;;11.49;67.80
71857;BME280;63344;46.980;28.882;2023-03-21T08:12:55;100752.53;;;11.65;66.38
71857;BME280;63344;46.980;28.882;2023-03-21T08:15:22;100743.81;;;11.61;65.74
71857;BME280;63344;46.980;28.882;2023-03-21T08:17:49;100750.28;;;11.76;65.40
71857;BME280;63344;46.980;28.882;2023-03-21T08:20:19;100757.78;;;11.88;64.57
71857;BME280;63344;46.980;28.882;2023-03-21T08:22:48;100756.00;;;11.89;64.30
71857;BME280;63344;46.980;28.882;2023-03-21T08:25:18;100764.22;;;12.05;64.85
71857;BME280;63344;46.980;28.882;2023-03-21T08:27:46;100754.25;;;12.30;64.04
71857;BME280;63344;46.980;28.882;2023-03-21T08:30:22;100750.97;;;12.44;63.32
71857;BME280;63344;46.980;28.882;2023-03-21T08:32:55;100752.00;;;12.80;62.71
71857;BME280;63344;46.980;28.882;2023-03-21T08:35:29;100749.59;;;13.13;61.29
71857;BME280;63344;46.980;28.882;2023-03-21T08:37:57;100751.69;;;13.44;60.12
71857;BME280;63344;46.980;28.882;2023-03-21T08:40:25;100748.88;;;13.65;59.09
71857;BME280;63344;46.980;28.882;2023-03-21T08:42:52;100749.81;;;13.64;59.06
71857;BME280;63344;46.980;28.882;2023-03-21T08:45:20;100735.69;;;13.62;58.48
71857;BME280;63344;46.980;28.882;2023-03-21T08:47:48;100742.31;;;13.72;58.56
71857;BME280;63344;46.980;28.882;2023-03-21T08:50:18;100728.09;;;13.89;57.65
71857;BME280;63344;46.980;28.882;2023-03-21T08:52:46;100739.72;;;14.23;57.43
71857;BME280;63344;46.980;28.882;2023-03-21T08:55:15;100730.66;;;14.43;56.86
71857;BME280;63344;46.980;28.882;2023-03-21T08:57:43;100732.66;;;14.55;55.95
71857;BME280;63344;46.980;28.882;2023-03-21T09:00:14;100729.63;;;14.63;56.20
71857;BME280;63344;46.980;28.882;2023-03-21T09:02:46;100718.22;;;14.59;55.86
71857;BME280;63344;46.980;28.882;2023-03-21T09:05:22;100727.81;;;14.63;55.12
71857;BME280;63344;46.980;28.882;2023-03-21T09:07:54;100732.66;;;14.72;55.08
71857;BME280;63344;46.980;28.882;2023-03-21T09:10:22;100731.59;;;15.08;54.38
71857;BME280;63344;46.980;28.882;2023-03-21T09:12:51;100732.00;;;15.95;55.11
71857;BME280;63344;46.980;28.882;2023-03-21T09:15:20;100728.50;;;17.23;51.63
71857;BME280;63344;46.980;28.882;2023-03-21T09:17:51;100707.63;;;17.56;48.42
71857;BME280;63344;46.980;28.882;2023-03-21T09:20:25;100716.13;;;17.89;48.49
71857;BME280;63344;46.980;28.882;2023-03-21T09:22:58;100720.63;;;18.79;46.82
71857;BME280;63344;46.980;28.882;2023-03-21T09:25:29;100719.69;;;19.54;45.43
71857;BME280;63344;46.980;28.882;2023-03-21T09:27:59;100719.53;;;19.68;45.04
71857;BME280;63344;46.980;28.882;2023-03-21T09:30:33;100714.50;;;19.87;44.68
71857;BME280;63344;46.980;28.882;2023-03-21T09:33:04;100710.66;;;20.25;42.99
71857;BME280;63344;46.980;28.882;2023-03-21T09:35:39;100709.31;;;19.84;43.50
71857;BME280;63344;46.980;28.882;2023-03-21T09:38:07;100711.53;;;20.48;40.86
71857;BME280;63344;46.980;28.882;2023-03-21T09:40:59;100707.53;;;20.99;40.20
71857;BME280;63344;46.980;28.882;2023-03-21T09:46:43;100709.63;;;21.51;38.68
71857;BME280;63344;46.980;28.882;2023-03-21T09:49:18;100707.47;;;21.22;38.98
71857;BME280;63344;46.980;28.882;2023-03-21T09:51:49;100702.16;;;21.32;39.35
71857;BME280;63344;46.980;28.882;2023-03-21T09:54:36;100704.47;;;21.59;38.47
71857;BME280;63344;46.980;28.882;2023-03-21T09:57:38;100699.63;;;21.62;37.48
71857;BME280;63344;46.980;28.882;2023-03-21T10:00:19;100693.09;;;21.97;37.09
71857;BME280;63344;46.980;28.882;2023-03-21T10:02:56;100686.16;;;22.87;34.69
71857;BME280;63344;46.980;28.882;2023-03-21T10:05:30;100680.94;;;22.64;33.94
71857;BME280;63344;46.980;28.882;2023-03-21T10:08:19;100685.16;;;23.67;34.70
71857;BME280;63344;46.980;28.882;2023-03-21T10:10:53;100678.03;;;23.96;33.12
71857;BME280;63344;46.980;28.882;2023-03-21T10:13:25;100681.78;;;23.95;33.28
71857;BME280;63344;46.980;28.882;2023-03-21T10:15:59;100679.28;;;24.21;32.11
71857;BME280;63344;46.980;28.882;2023-03-21T10:18:29;100677.00;;;22.78;33.51
71857;BME280;63344;46.980;28.882;2023-03-21T10:21:01;100673.88;;;22.21;35.34
71857;BME280;63344;46.980;28.882;2023-03-21T10:23:30;100668.16;;;22.15;35.75
71857;BME280;63344;46.980;28.882;2023-03-21T10:26:05;100659.03;;;22.37;34.27
71857;BME280;63344;46.980;28.882;2023-03-21T10:28:37;100662.28;;;23.12;33.61
71857;BME280;63344;46.980;28.882;2023-03-21T10:31:21;100661.91;;;23.45;30.86
71857;BME280;63344;46.980;28.882;2023-03-21T10:34:01;100649.94;;;22.88;31.98
71857;BME280;63344;46.980;28.882;2023-03-21T10:36:30;100639.38;;;22.35;32.85
71857;BME280;63344;46.980;28.882;2023-03-21T10:39:02;100652.75;;;22.67;32.05
71857;BME280;63344;46.980;28.882;2023-03-21T10:41:31;100646.50;;;23.56;31.34
71857;BME280;63344;46.980;28.882;2023-03-21T10:44:09;100644.91;;;23.92;29.82
71857;BME280;63344;46.980;28.882;2023-03-21T10:46:37;100644.19;;;24.57;28.09
71857;BME280;63344;46.980;28.882;2023-03-21T10:49:07;100631.13;;;24.88;28.13
71857;BME280;63344;46.980;28.882;2023-03-21T10:51:38;100629.38;;;24.32;27.38
71857;BME280;63344;46.980;28.882;2023-03-21T10:54:12;100627.50;;;23.95;28.57
71857;BME280;63344;46.980;28.882;2023-03-21T10:56:57;100630.16;;;22.97;27.87
71857;BME280;63344;46.980;28.882;2023-03-21T10:59:36;100625.22;;;23.32;28.43
71857;BME280;63344;46.980;28.882;2023-03-21T11:02:05;100617.53;;;23.37;28.54
71857;BME280;63344;46.980;28.882;2023-03-21T11:04:42;100626.66;;;23.65;28.19
71857;BME280;63344;46.980;28.882;2023-03-21T11:07:13;100619.81;;;24.28;28.09
71857;BME280;63344;46.980;28.882;2023-03-21T11:09:58;100603.69;;;24.26;27.40
71857;BME280;63344;46.980;28.882;2023-03-21T11:12:47;100615.19;;;22.93;28.31
71857;BME280;63344;46.980;28.882;2023-03-21T11:15:47;100623.00;;;22.77;29.13
71857;BME280;63344;46.980;28.882;2023-03-21T11:18:29;100616.09;;;23.03;29.86
71857;BME280;63344;46.980;28.882;2023-03-21T11:21:09;100616.88;;;22.75;29.80
71857;BME280;63344;46.980;28.882;2023-03-21T11:23:41;100607.22;;;22.20;30.98
71857;BME280;63344;46.980;28.882;2023-03-21T11:26:16;100603.31;;;21.61;31.39
71857;BME280;63344;46.980;28.882;2023-03-21T11:28:51;100595.28;;;21.71;30.66
71857;BME280;63344;46.980;28.882;2023-03-21T11:31:20;100607.41;;;21.56;31.43
71857;BME280;63344;46.980;28.882;2023-03-21T11:33:53;100606.53;;;21.76;31.19
71857;BME280;63344;46.980;28.882;2023-03-21T11:36:30;100596.66;;;21.65;30.85
71857;BME280;63344;46.980;28.882;2023-03-21T11:39:13;100598.50;;;21.86;30.96
71857;BME280;63344;46.980;28.882;2023-03-21T11:41:46;100592.28;;;21.95;30.00
71857;BME280;63344;46.980;28.882;2023-03-21T11:44:32;100597.09;;;21.92;30.64
71857;BME280;63344;46.980;28.882;2023-03-21T11:47:00;100592.81;;;21.89;31.18
71857;BME280;63344;46.980;28.882;2023-03-21T11:49:38;100587.13;;;21.92;31.02
71857;BME280;63344;46.980;28.882;2023-03-21T11:52:37;100585.78;;;21.77;31.08
71857;BME280;63344;46.980;28.882;2023-03-21T11:55:16;100585.31;;;21.72;31.83
71857;BME280;63344;46.980;28.882;2023-03-21T11:58:04;100578.78;;;21.95;31.89
71857;BME280;63344;46.980;28.882;2023-03-21T12:00:48;100574.63;;;23.13;30.45
71857;BME280;63344;46.980;28.882;2023-03-21T12:03:41;100575.16;;;23.55;29.86
71857;BME280;63344;46.980;28.882;2023-03-21T12:17:20;100560.59;;;22.38;31.50
71857;BME280;63344;46.980;28.882;2023-03-21T12:23:14;100561.72;;;22.85;30.83
71857;BME280;63344;46.980;28.882;2023-03-21T12:25:25;100556.16;;;22.77;31.18
71857;BME280;63344;46.980;28.882;2023-03-21T12:28:17;100552.31;;;22.30;31.50
71857;BME280;63344;46.980;28.882;2023-03-21T12:36:28;100551.50;;;23.09;30.91
71857;BME280;63344;46.980;28.882;2023-03-21T12:45:08;100542.13;;;22.62;31.12
71857;BME280;63344;46.980;28.882;2023-03-21T12:47:59;100535.81;;;22.42;31.65
71857;BME280;63344;46.980;28.882;2023-03-21T12:50:34;100538.16;;;22.57;31.26
71857;BME280;63344;46.980;28.882;2023-03-21T12:53:24;100539.06;;;21.96;31.79
71857;BME280;63344;46.980;28.882;2023-03-21T12:55:56;100541.81;;;21.54;32.77
71857;BME280;63344;46.980;28.882;2023-03-21T12:58:27;100526.72;;;21.19;32.96
71857;BME280;63344;46.980;28.882;2023-03-21T13:00:59;100536.91;;;20.94;33.13
71857;BME280;63344;46.980;28.882;2023-03-21T13:03:35;100533.69;;;21.00;32.98
71857;BME280;63344;46.980;28.882;2023-03-21T13:06:09;100525.94;;;21.07;33.02
71857;BME280;63344;46.980;28.882;2023-03-21T13:08:51;100525.06;;;20.74;33.65
71857;BME280;63344;46.980;28.882;2023-03-21T13:11:26;100511.28;;;20.34;33.69
71857;BME280;63344;46.980;28.882;2023-03-21T13:19:42;100513.78;;;19.92;35.11
71857;BME280;63344;46.980;28.882;2023-03-21T13:22:26;100509.97;;;19.83;35.54
71857;BME280;63344;46.980;28.882;2023-03-21T13:25:23;100496.88;;;19.89;35.67
71857;BME280;63344;46.980;28.882;2023-03-21T13:28:01;100504.94;;;20.01;35.53
71857;BME280;63344;46.980;28.882;2023-03-21T13:30:32;100499.94;;;19.96;35.96
71857;BME280;63344;46.980;28.882;2023-03-21T13:33:11;100507.41;;;19.81;35.64
71857;BME280;63344;46.980;28.882;2023-03-21T13:35:59;100514.81;;;19.44;36.46
71857;BME280;63344;46.980;28.882;2023-03-21T13:38:35;100508.00;;;19.27;36.79
71857;BME280;63344;46.980;28.882;2023-03-21T13:41:38;100514.53;;;19.36;37.03
71857;BME280;63344;46.980;28.882;2023-03-21T13:44:40;100510.41;;;19.54;36.75
71857;BME280;63344;46.980;28.882;2023-03-21T13:47:29;100502.31;;;19.54;37.05
71857;BME280;63344;46.980;28.882;2023-03-21T13:52:40;100500.75;;;19.52;37.43
71857;BME280;63344;46.980;28.882;2023-03-21T13:55:19;100498.19;;;19.61;37.72
71857;BME280;63344;46.980;28.882;2023-03-21T13:57:46;100487.41;;;19.61;38.34
71857;BME280;63344;46.980;28.882;2023-03-21T14:03:17;100492.16;;;19.35;39.27
71857;BME280;63344;46.980;28.882;2023-03-21T14:05:50;100490.31;;;19.36;39.59
71857;BME280;63344;46.980;28.882;2023-03-21T14:08:20;100482.44;;;19.33;39.30
71857;BME280;63344;46.980;28.882;2023-03-21T14:11:06;100486.13;;;19.32;39.30
71857;BME280;63344;46.980;28.882;2023-03-21T14:13:34;100491.13;;;19.25;39.57
71857;BME280;63344;46.980;28.882;2023-03-21T14:16:17;100488.41;;;19.25;39.92
71857;BME280;63344;46.980;28.882;2023-03-21T14:18:51;100480.06;;;19.05;40.21
71857;BME280;63344;46.980;28.882;2023-03-21T14:21:24;100485.53;;;18.93;40.60
71857;BME280;63344;46.980;28.882;2023-03-21T14:24:06;100490.84;;;18.57;41.38
71857;BME280;63344;46.980;28.882;2023-03-21T14:26:39;100483.94;;;18.29;42.21
71857;BME280;63344;46.980;28.882;2023-03-21T14:29:08;100475.97;;;18.03;42.20